Time,TemperatureF,DewpointF,PressureIn,WindDirection,WindDirectionDegrees,WindSpeedMPH,WindSpeedGustMPH,Humidity,HourlyPrecipIn,Conditions,Clouds,dailyrainin,SoftwareType,DateUTC
2013-01-06 00:02:00,35.6,21.0,30.27,NNW,340,0.0,-999.0,55,-99.99,,,0.00,weatherlink.com 1.10,2013-01-06 07:02:00,
2013-01-06 00:17:00,36.8,21.0,30.27,NNW,340,0.0,-999.0,53,-99.99,,,0.00,weatherlink.com 1.10,2013-01-06 07:17:00,
2013-01-06 00:32:00,36.7,20.0,30.26,NNW,340,0.0,-999.0,52,-99.99,,,0.00,weatherlink.com 1.10,2013-01-06 07:32:00,
2013-01-06 00:47:00,37.0,20.0,30.25,NNW,340,1.0,-999.0,51,-99.99,,,0.00,weatherlink.com 1.10,2013-01-06 07:47:00,
2013-01-06 01:02:00,36.9,20.0,30.25,NNW,340,2.0,-999.0,51,-99.99,,,0.00,weatherlink.com 1.10,2013-01-06 08:02:00,
2013-01-06 01:17:00,37.0,20.0,30.25,NNW,340,1.0,-999.0,51,-99.99,,,0.00,weatherlink.com 1.10,2013-01-06 08:17:00,
2013-01-06 01:32:00,36.9,20.0,30.25,NNW,340,0.0,-999.0,51,-99.99,,,0.00,weatherlink.com 1.10,2013-01-06 08:32:00,
2013-01-06 01:47:00,36.8,20.0,30.24,NNW,340,0.0,-999.0,51,-99.99,,,0.00,weatherlink.com 1.10,2013-01-06 08:47:00,
2013-01-06 02:02:00,36.6,20.0,30.24,NNW,340,0.0,-999.0,51,-99.99,,,0.00,weatherlink.com 1.10,2013-01-06 09:02:00,
2013-01-06 02:17:00,36.5,19.0,30.24,NNW,340,2.0,-999.0,50,-99.99,,,0.00,weatherlink.com 1.10,2013-01-06 09:17:00,
2013-01-06 02:32:00,36.6,19.0,30.23,NNW,340,2.0,-999.0,49,-99.99,,,0.00,weatherlink.com 1.10,2013-01-06 09:32:00,
2013-01-06 02:47:00,36.3,19.0,30.23,NNW,340,2.0,-999.0,49,-99.99,,,0.00,weatherlink.com 1.10,2013-01-06 09:47:00,
2013-01-06 03:02:00,35.9,19.0,30.23,NNW,340,2.0,-999.0,50,-99.99,,,0.00,weatherlink.com 1.10,2013-01-06 10:02:00,
2013-01-06 03:17:00,36.0,19.0,30.22,NNW,340,0.0,-999.0,51,-99.99,,,0.00,weatherlink.com 1.10,2013-01-06 10:17:00,
2013-01-06 03:32:00,36.1,19.0,30.23,NNW,340,0.0,-999.0,50,-99.99,,,0.00,weatherlink.com 1.10,2013-01-06 10:32:00,
2013-01-06 03:47:00,36.2,19.0,30.22,NNW,340,1.0,-999.0,50,-99.99,,,0.00,weatherlink.com 1.10,2013-01-06 10:47:00,
2013-01-06 04:02:00,36.1,19.0,30.21,NNW,340,1.0,-999.0,50,-99.99,,,0.00,weatherlink.com 1.10,2013-01-06 11:02:00,
2013-01-06 04:17:00,36.0,19.0,30.21,NNW,340,1.0,-999.0,50,-99.99,,,0.00,weatherlink.com 1.10,2013-01-06 11:17:00,
2013-01-06 04:32:00,36.0,19.0,30.21,NNW,340,0.0,-999.0,50,-99.99,,,0.00,weatherlink.com 1.10,2013-01-06 11:32:00,
2013-01-06 04:47:00,36.4,18.0,30.20,NNW,340,1.0,-999.0,48,-99.99,,,0.00,weatherlink.com 1.10,2013-01-06 11:47:00,
2013-01-06 05:02:00,36.9,18.0,30.20,NNW,340,2.0,-999.0,47,-99.99,,,0.00,weatherlink.com 1.10,2013-01-06 12:02:00,
2013-01-06 05:17:00,36.7,19.0,30.20,NNW,340,0.0,-999.0,48,-99.99,,,0.00,weatherlink.com 1.10,2013-01-06 12:17:00,
2013-01-06 05:32:00,36.0,19.0,30.20,NNW,340,0.0,-999.0,50,-99.99,,,0.00,weatherlink.com 1.10,2013-01-06 12:32:00,
2013-01-06 05:47:00,35.7,19.0,30.20,NNW,340,0.0,-999.0,51,-99.99,,,0.00,weatherlink.com 1.10,2013-01-06 12:47:00,
2013-01-06 06:02:00,35.6,19.0,30.20,NNW,340,0.0,-999.0,52,-99.99,,,0.00,weatherlink.com 1.10,2013-01-06 13:02:00,
2013-01-06 06:17:00,35.8,20.0,30.20,NNW,340,2.0,-999.0,52,-99.99,,,0.00,weatherlink.com 1.10,2013-01-06 13:17:00,
2013-01-06 06:33:00,36.4,19.0,30.19,NNW,340,1.0,-999.0,49,-99.99,,,0.00,weatherlink.com 1.10,2013-01-06 13:33:00,
2013-01-06 06:48:00,36.9,19.0,30.18,NNW,340,2.0,-999.0,49,-99.99,,,0.00,weatherlink.com 1.10,2013-01-06 13:48:00,
2013-01-06 07:02:00,36.9,20.0,30.18,NNW,340,2.0,-999.0,50,-99.99,,,0.00,weatherlink.com 1.10,2013-01-06 14:02:00,
2013-01-06 07:18:00,36.4,20.0,30.18,NNW,340,0.0,-999.0,51,-99.99,,,0.00,weatherlink.com 1.10,2013-01-06 14:18:00,
2013-01-06 07:32:00,36.6,19.0,30.17,NNW,340,0.0,-999.0,50,-99.99,,,0.00,weatherlink.com 1.10,2013-01-06 14:32:00,
2013-01-06 07:48:00,37.1,20.0,30.17,NNW,340,0.0,-999.0,50,-99.99,,,0.00,weatherlink.com 1.10,2013-01-06 14:48:00,
2013-01-06 08:03:00,37.3,21.0,30.17,NNW,340,0.0,-999.0,51,-99.99,,,0.00,weatherlink.com 1.10,2013-01-06 15:03:00,
2013-01-06 08:17:00,37.4,21.0,30.17,NNW,340,0.0,-999.0,52,-99.99,,,0.00,weatherlink.com 1.10,2013-01-06 15:17:00,
2013-01-06 08:33:00,38.3,20.0,30.17,NNW,340,1.0,-999.0,49,-99.99,,,0.00,weatherlink.com 1.10,2013-01-06 15:33:00,
2013-01-06 08:47:00,39.5,20.0,30.17,NNW,340,0.0,-999.0,46,-99.99,,,0.00,weatherlink.com 1.10,2013-01-06 15:47:00,
2013-01-06 09:03:00,40.9,20.0,30.18,NNW,340,0.0,-999.0,44,-99.99,,,0.00,weatherlink.com 1.10,2013-01-06 16:03:00,
2013-01-06 09:18:00,41.9,21.0,30.18,NNW,340,0.0,-999.0,43,-99.99,,,0.00,weatherlink.com 1.10,2013-01-06 16:18:00,
2013-01-06 09:33:00,42.5,21.0,30.19,NNW,340,0.0,-999.0,43,-99.99,,,0.00,weatherlink.com 1.10,2013-01-06 16:33:00,
2013-01-06 09:48:00,43.7,21.0,30.19,NNW,340,0.0,-999.0,41,-99.99,,,0.00,weatherlink.com 1.10,2013-01-06 16:48:00,
2013-01-06 10:03:00,45.6,21.0,30.20,NNW,340,0.0,-999.0,38,-99.99,,,0.00,weatherlink.com 1.10,2013-01-06 17:03:00,
2013-01-06 10:18:00,47.5,20.0,30.20,NNW,340,0.0,-999.0,33,-99.99,,,0.00,weatherlink.com 1.10,2013-01-06 17:18:00,
2013-01-06 10:33:00,49.5,19.0,30.20,NNW,340,0.0,-999.0,30,-99.99,,,0.00,weatherlink.com 1.10,2013-01-06 17:33:00,
2013-01-06 10:49:00,51.6,19.0,30.19,NNW,340,1.0,-999.0,28,-99.99,,,0.00,weatherlink.com 1.10,2013-01-06 17:49:00,
2013-01-06 11:03:00,52.6,20.0,30.18,NNW,340,0.0,-999.0,28,-99.99,,,0.00,weatherlink.com 1.10,2013-01-06 18:03:00,
2013-01-06 11:19:00,53.9,20.0,30.17,NNW,340,1.0,-999.0,27,-99.99,,,0.00,weatherlink.com 1.10,2013-01-06 18:19:00,
2013-01-06 11:33:00,55.6,21.0,30.16,NNW,340,0.0,-999.0,26,-99.99,,,0.00,weatherlink.com 1.10,2013-01-06 18:33:00,
2013-01-06 11:48:00,56.9,21.0,30.14,NNW,342,0.0,-999.0,25,-99.99,,,0.00,weatherlink.com 1.10,2013-01-06 18:48:00,
2013-01-06 12:04:00,58.8,22.0,30.13,NNW,342,2.0,-999.0,24,-99.99,,,0.00,weatherlink.com 1.10,2013-01-06 19:04:00,
2013-01-06 12:18:00,59.9,22.0,30.12,NNW,342,0.0,-999.0,23,-99.99,,,0.00,weatherlink.com 1.10,2013-01-06 19:18:00,
2013-01-06 12:34:00,61.8,21.0,30.11,WNW,295,3.0,-999.0,21,-99.99,,,0.00,weatherlink.com 1.10,2013-01-06 19:34:00,
2013-01-06 12:49:00,62.9,20.0,30.09,SSW,194,0.0,-999.0,19,-99.99,,,0.00,weatherlink.com 1.10,2013-01-06 19:49:00,
2013-01-06 13:03:00,63.3,19.0,30.08,SSE,159,5.0,-999.0,18,-99.99,,,0.00,weatherlink.com 1.10,2013-01-06 20:03:00,
2013-01-06 13:19:00,63.6,19.0,30.08,SW,214,4.0,-999.0,18,-99.99,,,0.00,weatherlink.com 1.10,2013-01-06 20:19:00,
2013-01-06 13:34:00,64.2,18.0,30.06,SSW,205,4.0,-999.0,17,-99.99,,,0.00,weatherlink.com 1.10,2013-01-06 20:34:00,
2013-01-06 13:49:00,65.1,18.0,30.05,SSW,205,0.0,-999.0,16,-99.99,,,0.00,weatherlink.com 1.10,2013-01-06 20:49:00,
2013-01-06 14:03:00,63.7,19.0,30.05,West,261,1.0,-999.0,18,-99.99,,,0.00,weatherlink.com 1.10,2013-01-06 21:03:00,
2013-01-06 14:18:00,63.3,20.0,30.05,WNW,290,1.0,-999.0,19,-99.99,,,0.00,weatherlink.com 1.10,2013-01-06 21:18:00,
2013-01-06 14:34:00,64.4,18.0,30.04,West,261,1.0,-999.0,17,-99.99,,,0.00,weatherlink.com 1.10,2013-01-06 21:34:00,
2013-01-06 14:49:00,64.0,23.0,30.05,West,261,7.0,-999.0,21,-99.99,,,0.00,weatherlink.com 1.10,2013-01-06 21:49:00,
2013-01-06 15:04:00,62.6,24.0,30.05,West,261,6.0,-999.0,23,-99.99,,,0.00,weatherlink.com 1.10,2013-01-06 22:04:00,
2013-01-06 15:19:00,61.9,26.0,30.05,West,273,5.0,-999.0,25,-99.99,,,0.00,weatherlink.com 1.10,2013-01-06 22:19:00,
2013-01-06 15:34:00,61.9,26.0,30.04,WSW,238,3.0,-999.0,25,-99.99,,,0.00,weatherlink.com 1.10,2013-01-06 22:34:00,
2013-01-06 15:49:00,61.8,25.0,30.04,WSW,250,2.0,-999.0,25,-99.99,,,0.00,weatherlink.com 1.10,2013-01-06 22:49:00,
2013-01-06 16:04:00,61.7,25.0,30.04,SW,218,3.0,-999.0,25,-99.99,,,0.00,weatherlink.com 1.10,2013-01-06 23:04:00,
2013-01-06 16:19:00,60.9,26.0,30.04,SW,229,4.0,-999.0,26,-99.99,,,0.00,weatherlink.com 1.10,2013-01-06 23:19:00,
2013-01-06 16:34:00,60.5,25.0,30.03,SW,232,1.0,-999.0,26,-99.99,,,0.00,weatherlink.com 1.10,2013-01-06 23:34:00,
2013-01-06 16:49:00,60.1,25.0,30.03,WSW,256,4.0,-999.0,26,-99.99,,,0.00,weatherlink.com 1.10,2013-01-06 23:49:00,
2013-01-06 17:04:00,59.3,25.0,30.03,West,265,1.0,-999.0,27,-99.99,,,0.00,weatherlink.com 1.10,2013-01-07 00:04:00,
2013-01-06 17:19:00,58.1,25.0,30.03,West,265,1.0,-999.0,28,-99.99,,,0.00,weatherlink.com 1.10,2013-01-07 00:19:00,
2013-01-06 17:34:00,56.9,25.0,30.02,West,265,0.0,-999.0,29,-99.99,,,0.00,weatherlink.com 1.10,2013-01-07 00:34:00,
2013-01-06 17:49:00,55.5,24.0,30.02,West,265,0.0,-999.0,30,-99.99,,,0.00,weatherlink.com 1.10,2013-01-07 00:49:00,
2013-01-06 18:04:00,54.5,24.0,30.02,West,265,0.0,-999.0,31,-99.99,,,0.00,weatherlink.com 1.10,2013-01-07 01:04:00,
2013-01-06 18:19:00,54.0,23.0,30.02,West,265,1.0,-999.0,30,-99.99,,,0.00,weatherlink.com 1.10,2013-01-07 01:19:00,
2013-01-06 18:34:00,54.0,22.0,30.02,West,265,0.0,-999.0,29,-99.99,,,0.00,weatherlink.com 1.10,2013-01-07 01:34:00,
2013-01-06 18:50:00,54.0,22.0,30.02,West,265,0.0,-999.0,29,-99.99,,,0.00,weatherlink.com 1.10,2013-01-07 01:50:00,
2013-01-06 19:04:00,53.7,23.0,30.02,West,265,0.0,-999.0,30,-99.99,,,0.00,weatherlink.com 1.10,2013-01-07 02:04:00,
2013-01-06 19:19:00,53.4,23.0,30.02,West,265,0.0,-999.0,30,-99.99,,,0.00,weatherlink.com 1.10,2013-01-07 02:19:00,
2013-01-06 19:34:00,52.8,24.0,30.02,West,265,0.0,-999.0,32,-99.99,,,0.00,weatherlink.com 1.10,2013-01-07 02:34:00,
2013-01-06 19:50:00,52.7,23.0,30.02,West,265,0.0,-999.0,32,-99.99,,,0.00,weatherlink.com 1.10,2013-01-07 02:50:00,
2013-01-06 20:04:00,51.8,23.0,30.02,West,265,0.0,-999.0,33,-99.99,,,0.00,weatherlink.com 1.10,2013-01-07 03:04:00,
2013-01-06 20:20:00,51.3,22.0,30.01,West,265,0.0,-999.0,32,-99.99,,,0.00,weatherlink.com 1.10,2013-01-07 03:20:00,
2013-01-06 20:34:00,50.6,22.0,30.01,West,265,0.0,-999.0,32,-99.99,,,0.00,weatherlink.com 1.10,2013-01-07 03:34:00,
2013-01-06 20:49:00,50.6,21.0,30.01,West,265,0.0,-999.0,31,-99.99,,,0.00,weatherlink.com 1.10,2013-01-07 03:49:00,
2013-01-06 21:04:00,49.8,22.0,30.02,West,265,0.0,-999.0,34,-99.99,,,0.00,weatherlink.com 1.10,2013-01-07 04:04:00,
2013-01-06 21:19:00,47.7,22.0,30.01,West,265,0.0,-999.0,37,-99.99,,,0.00,weatherlink.com 1.10,2013-01-07 04:19:00,
2013-01-06 21:34:00,45.6,22.0,30.01,West,265,0.0,-999.0,40,-99.99,,,0.00,weatherlink.com 1.10,2013-01-07 04:34:00,
2013-01-06 21:49:00,44.1,24.0,30.00,West,265,0.0,-999.0,45,-99.99,,,0.00,weatherlink.com 1.10,2013-01-07 04:49:00,
2013-01-06 22:04:00,42.5,23.0,30.00,West,265,0.0,-999.0,46,-99.99,,,0.00,weatherlink.com 1.10,2013-01-07 05:04:00,
2013-01-06 22:19:00,41.8,24.0,30.01,West,265,0.0,-999.0,49,-99.99,,,0.00,weatherlink.com 1.10,2013-01-07 05:19:00,
2013-01-06 22:34:00,41.9,24.0,30.01,West,265,0.0,-999.0,49,-99.99,,,0.00,weatherlink.com 1.10,2013-01-07 05:34:00,
2013-01-06 22:49:00,42.4,24.0,30.00,West,265,0.0,-999.0,49,-99.99,,,0.00,weatherlink.com 1.10,2013-01-07 05:49:00,
2013-01-06 23:04:00,42.3,25.0,30.01,West,265,0.0,-999.0,50,-99.99,,,0.00,weatherlink.com 1.10,2013-01-07 06:04:00,
2013-01-06 23:19:00,43.0,24.0,30.00,West,265,0.0,-999.0,47,-99.99,,,0.00,weatherlink.com 1.10,2013-01-07 06:19:00,
2013-01-06 23:34:00,43.2,23.0,30.00,West,265,1.0,-999.0,45,-99.99,,,0.00,weatherlink.com 1.10,2013-01-07 06:34:00,
2013-01-06 23:49:00,43.6,23.0,30.00,West,265,1.0,-999.0,44,-99.99,,,0.00,weatherlink.com 1.10,2013-01-07 06:49:00,